Latest Weather Observations for Fawkner Beacon

IDV60801

Issued at 4:23 pm EDT Tuesday 29 November 2022 (issued every 10 minutes, with the page automatically refreshed every 10 minutes)

About weather observations | Map of weather stations | Latest weather observations for VIC | Other Formats
Station Details ID: 086376 Name: FAWKNER BEACON Lat: -37.95 Lon: 144.93 Height: 17.0 m
Data from the previous 72 hours. | See also: Recent months at Fawkner Beacon
Date/Time
EDT
Temp
°C
App
Temp
°C
Dew
Point
°C
Rel
Hum
%
Delta-T
°C
Wind Press
QNH
hPa
Press
MSL
hPa
Rain since
9am
mm
Dir  Spd
km/h
Gust
km/h
Spd
kts
Gust
kts
29/04:00pm - - - - - SSE 20 24 11 13 - - -
29/03:30pm - - - - - SSE 22 28 12 15 - - -
29/03:00pm - - - - - SSE 20 24 11 13 - - -
29/02:30pm - - - - - SSE 20 24 11 13 - - -
29/02:00pm - - - - - S 22 28 12 15 - - -
29/01:30pm - - - - - S 22 26 12 14 - - -
29/01:00pm - - - - - S 24 28 13 15 - - -
29/12:30pm - - - - - S 24 28 13 15 - - -
29/12:00pm - - - - - S 28 32 15 17 - - -
29/11:30am - - - - - SW 26 30 14 16 - - -
29/11:00am - - - - - SW 26 30 14 16 - - -
29/10:30am - - - - - SW 24 30 13 16 - - -
29/10:00am - - - - - WSW 26 32 14 17 - - -
29/09:30am - - - - - WSW 28 32 15 17 - - -
29/09:00am - - - - - WSW 28 33 15 18 - - -
29/08:30am - - - - - WSW 30 35 16 19 - - -
29/08:00am - - - - - WSW 28 33 15 18 - - -
29/07:30am - - - - - WSW 26 33 14 18 - - -
29/07:00am - - - - - WSW 30 35 16 19 - - -
29/06:30am - - - - - W 32 39 17 21 - - -
29/06:00am - - - - - W 32 39 17 21 - - -
29/05:30am - - - - - W 33 39 18 21 - - -
29/05:00am - - - - - WSW 33 41 18 22 - - -
29/04:30am - - - - - W 33 39 18 21 - - -
29/04:00am - - - - - W 33 41 18 22 - - -
29/03:30am - - - - - W 32 41 17 22 - - -
29/03:00am - - - - - WSW 32 46 17 25 - - -
29/02:30am - - - - - W 41 48 22 26 - - -
29/02:00am - - - - - W 33 43 18 23 - - -
29/01:30am - - - - - W 41 48 22 26 - - -
29/01:00am - - - - - W 37 46 20 25 - - -
29/12:30am - - - - - W 39 50 21 27 - - -
29/12:00am - - - - - W 35 44 19 24 - - -
 
Date/Time
EDT
Temp
°C
App
Temp
°C
Dew
Point
°C
Rel
Hum
%
Delta-T
°C
Wind Press
QNH
hPa
Press
MSL
hPa
Rain since
9am
mm
Dir  Spd
km/h
Gust
km/h
Spd
kts
Gust
kts
28/11:30pm - - - - - W 35 44 19 24 - - -
28/11:00pm - - - - - WNW 32 43 17 23 - - -
28/10:30pm - - - - - W 35 48 19 26 - - -
28/10:00pm - - - - - W 35 43 19 23 - - -
28/09:30pm - - - - - W 28 35 15 19 - - -
28/09:00pm - - - - - W 28 41 15 22 - - -
28/08:30pm - - - - - WSW 24 28 13 15 - - -
28/08:00pm - - - - - WSW 28 33 15 18 - - -
28/07:30pm - - - - - WSW 39 46 21 25 - - -
28/07:00pm - - - - - WSW 33 41 18 22 - - -
28/06:30pm - - - - - WSW 39 48 21 26 - - -
28/06:26pm - - - - - W 33 48 18 26 - - -
28/06:15pm - - - - - W 20 35 11 19 - - -
28/06:00pm - - - - - WSW 11 17 6 9 - - -
28/05:30pm - - - - - WSW 17 20 9 11 - - -
28/05:00pm - - - - - W 24 33 13 18 - - -
28/04:30pm - - - - - WNW 26 32 14 17 - - -
28/04:00pm - - - - - W 30 39 16 21 - - -
28/03:30pm - - - - - W 22 30 12 16 - - -
28/03:00pm - - - - - W 24 30 13 16 - - -
28/02:30pm - - - - - WSW 24 28 13 15 - - -
28/02:00pm - - - - - W 15 20 8 11 - - -
28/01:30pm - - - - - WSW 20 26 11 14 - - -
28/01:00pm - - - - - W 24 28 13 15 - - -
28/12:30pm - - - - - WSW 20 26 11 14 - - -
28/12:00pm - - - - - W 17 22 9 12 - - -
28/11:30am - - - - - W 19 24 10 13 - - -
28/11:00am - - - - - WSW 19 24 10 13 - - -
28/10:30am - - - - - W 19 24 10 13 - - -
28/10:00am - - - - - W 20 26 11 14 - - -
28/09:30am - - - - - W 24 30 13 16 - - -
28/09:00am - - - - - W 26 30 14 16 - - -
28/08:30am - - - - - W 26 33 14 18 - - -
28/08:00am - - - - - WNW 22 26 12 14 - - -
28/07:30am - - - - - WNW 24 28 13 15 - - -
28/07:00am - - - - - W 22 30 12 16 - - -
28/06:30am - - - - - W 28 33 15 18 - - -
28/06:00am - - - - - WNW 24 30 13 16 - - -
28/05:30am - - - - - WNW 22 26 12 14 - - -
28/05:00am - - - - - WNW 20 24 11 13 - - -
28/04:30am - - - - - W 22 26 12 14 - - -
28/04:00am - - - - - W 20 26 11 14 - - -
28/03:30am - - - - - W 22 26 12 14 - - -
28/03:00am - - - - - W 24 28 13 15 - - -
28/02:30am - - - - - W 22 26 12 14 - - -
28/02:00am - - - - - W 22 26 12 14 - - -
28/01:30am - - - - - W 22 28 12 15 - - -
28/01:00am - - - - - W 24 30 13 16 - - -
28/12:30am - - - - - W 22 26 12 14 - - -
28/12:00am - - - - - W 22 28 12 15 - - -
 
Date/Time
EDT
Temp
°C
App
Temp
°C
Dew
Point
°C
Rel
Hum
%
Delta-T
°C
Wind Press
QNH
hPa
Press
MSL
hPa
Rain since
9am
mm
Dir  Spd
km/h
Gust
km/h
Spd
kts
Gust
kts
27/11:30pm - - - - - SW 22 28 12 15 - - -
27/11:00pm - - - - - SW 17 22 9 12 - - -
27/10:30pm - - - - - SW 20 26 11 14 - - -
27/10:00pm - - - - - SW 24 28 13 15 - - -
27/09:30pm - - - - - S 24 32 13 17 - - -
27/09:00pm - - - - - S 28 35 15 19 - - -
27/08:30pm - - - - - SSW 32 41 17 22 - - -
27/08:00pm - - - - - S 24 28 13 15 - - -
27/07:30pm - - - - - S 28 32 15 17 - - -
27/07:00pm - - - - - S 32 41 17 22 - - -
27/06:30pm - - - - - SSW 33 41 18 22 - - -
27/06:00pm - - - - - S 35 43 19 23 - - -
27/05:30pm - - - - - SSW 41 48 22 26 - - -
27/05:00pm - - - - - SSW 48 54 26 29 - - -
27/04:30pm - - - - - S 37 44 20 24 - - -
27/04:05pm - - - - - SW 24 52 13 28 - - -
27/04:00pm - - - - - SSW 19 24 10 13 - - -
27/03:30pm - - - - - SSW 17 22 9 12 - - -
27/03:00pm - - - - - SSW 24 30 13 16 - - -
27/02:30pm - - - - - SW 26 32 14 17 - - -
27/02:00pm - - - - - SW 30 35 16 19 - - -
27/01:30pm - - - - - WSW 26 33 14 18 - - -
27/01:00pm - - - - - WSW 26 33 14 18 - - -
27/12:30pm - - - - - WSW 26 32 14 17 - - -
27/12:00pm - - - - - WSW 35 41 19 22 - - -
27/11:30am - - - - - WSW 26 32 14 17 - - -
27/11:00am - - - - - WSW 22 26 12 14 - - -
27/10:30am - - - - - WSW 13 17 7 9 - - -
27/10:00am - - - - - WSW 11 13 6 7 - - -
27/09:30am - - - - - WSW 17 20 9 11 - - -
27/09:00am - - - - - WSW 19 26 10 14 - - -
27/08:30am - - - - - WSW 22 28 12 15 - - -
27/08:00am - - - - - WSW 24 28 13 15 - - -
27/07:30am - - - - - WSW 24 30 13 16 - - -
27/07:00am - - - - - WSW 17 26 9 14 - - -
27/06:30am - - - - - W 13 17 7 9 - - -
27/06:00am - - - - - NW 11 17 6 9 - - -
27/05:30am - - - - - NW 13 17 7 9 - - -
27/05:00am - - - - - WNW 17 26 9 14 - - -
27/04:30am - - - - - W 19 24 10 13 - - -
27/04:00am - - - - - WSW 24 28 13 15 - - -
27/03:30am - - - - - WSW 26 32 14 17 - - -
27/03:00am - - - - - WSW 32 35 17 19 - - -
27/02:30am - - - - - SW 32 39 17 21 - - -
27/02:00am - - - - - WSW 41 46 22 25 - - -
27/01:30am - - - - - WSW 33 41 18 22 - - -
27/01:00am - - - - - WSW 33 41 18 22 - - -
27/12:30am - - - - - W 35 46 19 25 - - -
27/12:18am - - - - - WNW 28 46 15 25 - - -
27/12:00am - - - - - WNW 24 30 13 16 - - -
 
Date/Time
EDT
Temp
°C
App
Temp
°C
Dew
Point
°C
Rel
Hum
%
Delta-T
°C
Wind Press
QNH
hPa
Press
MSL
hPa
Rain since
9am
mm
Dir  Spd
km/h
Gust
km/h
Spd
kts
Gust
kts
26/11:30pm - - - - - NW 15 20 8 11 - - -
26/11:00pm - - - - - NNW 22 30 12 16 - - -
26/10:30pm - - - - - NW 17 22 9 12 - - -
26/10:00pm - - - - - N 22 26 12 14 - - -
26/09:30pm - - - - - N 28 32 15 17 - - -
26/09:00pm - - - - - NNW 20 33 11 18 - - -
26/08:30pm - - - - - NNW 33 41 18 22 - - -
26/08:28pm - - - - - NNW 33 41 18 22 - - -
26/08:00pm - - - - - NW 46 63 25 34 - - -
26/07:58pm - - - - - NW 44 63 24 34 - - -
26/07:30pm - - - - - WNW 48 61 26 33 - - -
26/07:00pm - - - - - NNW 43 78 23 42 - - -
26/06:59pm - - - - - NNW 43 78 23 42 - - -
26/06:58pm - - - - - N 41 59 22 32 - - -
26/06:30pm - - - - - N 43 52 23 28 - - -
26/06:00pm - - - - - N 46 59 25 32 - - -
26/05:30pm - - - - - N 50 65 27 35 - - -
26/05:00pm - - - - - N 46 59 25 32 - - -
26/04:30pm - - - - - N 41 50 22 27 - - -

Other formats

Comma delimited format used in spreadsheet applications
http://www.bom.gov.au/fwo/IDV60801/IDV60801.95872.axf

JavaScript Object Notation format (JSON) in row-major order
http://www.bom.gov.au/fwo/IDV60801/IDV60801.95872.json

Data quality

Most of these data are generated automatically and are frequently updated. Quality checks on data are not normally performed. It is possible for incorrect values to appear. Refer to information at About Latest Weather Observations and please check the disclaimer before using these data.